createdAt,value
2023-11-30T00:01:03.975Z,7.13
2023-11-30T00:03:31.718Z,7.68
2023-11-30T00:05:59.324Z,6.55
2023-11-30T00:08:26.933Z,7.30
2023-11-30T00:10:54.521Z,6.68
2023-11-30T00:13:22.103Z,6.93
2023-11-30T00:15:50.963Z,7.43
2023-11-30T00:18:18.601Z,7.57
2023-11-30T00:20:46.179Z,7.50
2023-11-30T00:23:13.761Z,6.95
2023-11-30T00:25:41.271Z,7.90
2023-11-30T00:28:08.809Z,6.88
2023-11-30T00:30:36.409Z,7.93
2023-11-30T00:33:05.699Z,7.03
2023-11-30T00:35:33.372Z,7.88
2023-11-30T00:38:01.432Z,7.82
2023-11-30T00:40:29.014Z,7.80
2023-11-30T00:42:56.631Z,7.82
2023-11-30T00:45:25.124Z,7.53
2023-11-30T00:47:52.885Z,8.02
2023-11-30T00:50:22.419Z,7.82
2023-11-30T00:52:50.028Z,7.40
2023-11-30T00:55:17.679Z,7.53
2023-11-30T00:57:45.321Z,7.45
2023-11-30T01:00:14.048Z,6.85
2023-11-30T01:02:41.999Z,7.53
2023-11-30T01:05:10.093Z,7.38
2023-11-30T01:07:39.062Z,7.13
2023-11-30T01:10:07.978Z,7.40
2023-11-30T01:12:35.616Z,7.50
2023-11-30T01:15:03.585Z,8.63
2023-11-30T01:17:31.215Z,8.27
2023-11-30T01:19:59.049Z,8.15
2023-11-30T01:22:26.635Z,8.15
2023-11-30T01:24:55.609Z,7.90
2023-11-30T01:27:23.189Z,7.45
2023-11-30T01:29:51.025Z,7.53
2023-11-30T01:32:18.647Z,7.93
2023-11-30T01:34:46.281Z,8.13
2023-11-30T01:37:13.945Z,7.97
2023-11-30T01:39:41.776Z,8.30
2023-11-30T01:42:10.874Z,7.93
2023-11-30T01:44:38.510Z,7.82
2023-11-30T01:47:06.756Z,7.25
2023-11-30T01:49:35.170Z,7.85
2023-11-30T01:52:03.634Z,7.40
2023-11-30T01:54:31.317Z,8.40
2023-11-30T01:56:59.515Z,8.45
2023-11-30T01:59:29.068Z,7.60
2023-11-30T02:01:56.924Z,8.27
2023-11-30T02:04:24.850Z,7.55
2023-11-30T02:06:52.873Z,7.78
2023-11-30T02:09:20.528Z,7.82
2023-11-30T02:11:48.590Z,8.32
2023-11-30T02:14:16.184Z,7.85
2023-11-30T02:16:45.122Z,7.97
2023-11-30T02:19:12.895Z,8.48
2023-11-30T02:21:40.529Z,8.50
2023-11-30T02:24:09.525Z,7.30
2023-11-30T02:26:37.047Z,8.02
2023-11-30T02:29:05.363Z,7.95
2023-11-30T02:31:33.430Z,7.78
2023-11-30T02:34:01.029Z,8.60
2023-11-30T02:36:30.122Z,8.70
2023-11-30T02:38:57.788Z,8.10
2023-11-30T02:41:27.243Z,7.65
2023-11-30T02:43:54.811Z,8.32
2023-11-30T02:46:22.502Z,7.78
2023-11-30T02:48:50.245Z,8.10
2023-11-30T02:51:17.883Z,8.93
2023-11-30T02:53:45.544Z,8.27
2023-11-30T02:56:13.302Z,8.50
2023-11-30T02:58:42.428Z,8.70
2023-11-30T03:01:10.063Z,9.43
2023-11-30T03:03:37.758Z,7.60
2023-11-30T03:06:11.938Z,8.73
2023-11-30T03:08:39.702Z,8.07
2023-11-30T03:11:07.502Z,8.57
2023-11-30T03:13:35.072Z,7.88
2023-11-30T03:16:04.091Z,8.68
2023-11-30T03:18:31.707Z,7.57
2023-11-30T03:20:59.381Z,7.80
2023-11-30T03:23:26.906Z,8.40
2023-11-30T03:25:54.562Z,7.90
2023-11-30T03:28:22.143Z,8.95
2023-11-30T03:30:49.685Z,8.52
2023-11-30T03:33:18.656Z,7.90
2023-11-30T03:35:46.621Z,8.00
2023-11-30T03:38:14.180Z,8.85
2023-11-30T03:40:41.750Z,7.40
2023-11-30T03:43:09.346Z,8.38
2023-11-30T03:45:36.889Z,7.72
2023-11-30T03:48:04.926Z,8.35
2023-11-30T03:50:33.861Z,8.25
2023-11-30T03:53:01.512Z,8.32
2023-11-30T03:55:29.280Z,8.52
2023-11-30T03:57:56.945Z,8.32
2023-11-30T04:00:24.533Z,8.15
2023-11-30T04:02:52.214Z,8.73
2023-11-30T04:05:20.736Z,8.55
2023-11-30T04:07:49.705Z,8.02
2023-11-30T04:10:18.995Z,7.68
2023-11-30T04:12:46.535Z,8.23
2023-11-30T04:15:14.217Z,8.50
2023-11-30T04:17:41.851Z,7.63
2023-11-30T04:20:10.823Z,8.65
2023-11-30T04:22:38.456Z,8.00
2023-11-30T04:25:08.301Z,8.18
2023-11-30T04:27:35.940Z,7.82
2023-11-30T04:30:03.691Z,7.43
2023-11-30T04:32:31.577Z,7.57
2023-11-30T04:35:00.006Z,7.93
2023-11-30T04:37:27.567Z,7.47
2023-11-30T04:39:55.874Z,7.97
2023-11-30T04:42:24.822Z,7.60
2023-11-30T04:44:52.407Z,7.88
2023-11-30T04:47:20.517Z,7.88
2023-11-30T04:49:48.161Z,7.35
2023-11-30T04:52:15.737Z,8.07
2023-11-30T04:54:43.720Z,7.90
2023-11-30T04:57:11.346Z,8.27
2023-11-30T04:59:41.544Z,7.68
2023-11-30T05:02:09.906Z,7.20
2023-11-30T05:04:38.215Z,7.10
2023-11-30T05:07:06.110Z,7.38
2023-11-30T05:09:33.736Z,7.82
2023-11-30T05:12:01.516Z,7.80
2023-11-30T05:14:29.198Z,7.18
2023-11-30T05:16:58.179Z,7.88
2023-11-30T05:19:25.762Z,7.63
2023-11-30T05:21:53.308Z,7.63
2023-11-30T05:24:21.106Z,7.40
2023-11-30T05:26:48.752Z,8.13
2023-11-30T05:29:16.306Z,7.53
2023-11-30T05:31:43.895Z,7.28
2023-11-30T05:34:12.882Z,7.65
2023-11-30T05:36:40.436Z,7.78
2023-11-30T05:39:08.506Z,7.32
2023-11-30T05:41:36.095Z,8.05
2023-11-30T05:44:05.426Z,7.72
2023-11-30T05:46:33.048Z,7.00
2023-11-30T05:49:00.767Z,7.82
2023-11-30T05:51:29.738Z,7.43
2023-11-30T05:53:57.438Z,7.68
2023-11-30T05:56:25.063Z,7.10
2023-11-30T05:58:53.005Z,8.13
2023-11-30T06:01:20.628Z,6.80
2023-11-30T06:03:48.279Z,8.07
2023-11-30T06:06:16.362Z,7.68
2023-11-30T06:08:45.304Z,7.90
2023-11-30T06:11:12.908Z,8.00
2023-11-30T06:13:40.452Z,8.43
2023-11-30T06:16:09.093Z,7.93
2023-11-30T06:18:36.814Z,7.38
2023-11-30T06:21:04.614Z,7.28
2023-11-30T06:23:32.208Z,7.40
2023-11-30T06:26:01.097Z,7.90
2023-11-30T06:28:29.434Z,7.22
2023-11-30T06:30:57.261Z,7.30
2023-11-30T06:33:24.973Z,7.97
2023-11-30T06:35:52.858Z,7.63
2023-11-30T06:38:20.459Z,7.50
2023-11-30T06:40:49.927Z,8.18
2023-11-30T06:43:18.824Z,7.72
2023-11-30T06:45:46.540Z,7.72
2023-11-30T06:48:14.243Z,8.40
2023-11-30T06:50:41.800Z,8.80
2023-11-30T06:53:09.421Z,8.82
2023-11-30T06:55:36.980Z,8.40
2023-11-30T06:58:04.561Z,8.40
2023-11-30T07:00:33.505Z,9.57
2023-11-30T07:03:01.106Z,9.15
2023-11-30T07:05:28.744Z,9.20
2023-11-30T07:07:56.371Z,8.57
2023-11-30T07:10:23.956Z,8.20
2023-11-30T07:12:51.647Z,8.43
2023-11-30T07:15:19.230Z,8.00
2023-11-30T07:17:48.163Z,8.23
2023-11-30T07:20:15.888Z,8.05
2023-11-30T07:22:43.487Z,7.72
2023-11-30T07:25:11.520Z,8.30
2023-11-30T07:27:39.222Z,7.90
2023-11-30T07:30:10.572Z,9.68
2023-11-30T07:32:38.403Z,8.70
2023-11-30T07:35:08.331Z,8.10
2023-11-30T07:37:35.901Z,7.65
2023-11-30T07:40:04.362Z,8.77
2023-11-30T07:42:35.608Z,7.40
2023-11-30T07:45:06.410Z,7.53
2023-11-30T07:47:34.084Z,7.82
2023-11-30T07:50:02.029Z,8.65
2023-11-30T07:52:32.169Z,8.10
2023-11-30T07:54:59.794Z,8.52
2023-11-30T07:57:27.457Z,8.10
2023-11-30T07:59:55.090Z,7.72
2023-11-30T08:02:22.661Z,8.57
2023-11-30T08:04:50.346Z,7.90
2023-11-30T08:07:17.904Z,8.48
2023-11-30T08:09:47.893Z,7.93
2023-11-30T08:12:15.522Z,8.27
2023-11-30T08:14:43.181Z,7.97
2023-11-30T08:17:11.507Z,7.53
2023-11-30T08:19:39.720Z,8.15
2023-11-30T08:22:07.616Z,8.20
2023-11-30T08:24:35.382Z,8.43
2023-11-30T08:27:04.676Z,8.43
2023-11-30T08:29:33.921Z,8.88
2023-11-30T08:32:01.584Z,9.02
2023-11-30T08:34:29.167Z,9.27
2023-11-30T08:36:56.769Z,8.60
2023-11-30T08:39:25.341Z,9.32
2023-11-30T08:41:54.316Z,9.27
2023-11-30T08:44:24.081Z,9.20
2023-11-30T08:46:51.972Z,9.88
2023-11-30T08:49:19.638Z,10.07
2023-11-30T08:51:47.414Z,9.85
2023-11-30T08:54:15.245Z,10.45
2023-11-30T08:56:42.819Z,11.15
2023-11-30T08:59:10.379Z,10.50
2023-11-30T09:01:39.457Z,9.48
2023-11-30T09:04:09.499Z,11.23
2023-11-30T09:06:37.500Z,10.80
2023-11-30T09:09:05.175Z,10.63
2023-11-30T09:11:34.501Z,10.30
2023-11-30T09:14:02.241Z,10.95
2023-11-30T09:16:29.910Z,10.02
2023-11-30T09:18:58.892Z,10.93
2023-11-30T09:21:27.269Z,11.05
2023-11-30T09:23:55.293Z,10.32
2023-11-30T09:26:23.672Z,10.68
2023-11-30T09:28:51.271Z,10.65
2023-11-30T09:31:19.029Z,11.00
2023-11-30T09:33:46.685Z,10.93
2023-11-30T09:36:16.375Z,11.60
2023-11-30T09:38:43.985Z,11.90
2023-11-30T09:41:14.686Z,12.30
2023-11-30T09:43:42.263Z,10.73
2023-11-30T09:46:10.550Z,12.18
2023-11-30T09:48:38.651Z,11.18
2023-11-30T09:51:07.361Z,10.60
2023-11-30T09:53:36.342Z,11.15
2023-11-30T09:56:04.413Z,11.40
2023-11-30T09:58:34.392Z,10.73
2023-11-30T10:01:03.281Z,12.25
2023-11-30T10:03:34.630Z,11.75
2023-11-30T10:06:03.078Z,11.27
2023-11-30T10:08:30.771Z,11.82
2023-11-30T10:10:59.710Z,13.68
2023-11-30T10:13:27.650Z,11.52
2023-11-30T10:15:55.389Z,11.88
2023-11-30T10:18:23.232Z,11.95
2023-11-30T10:20:50.946Z,12.27
2023-11-30T10:23:18.717Z,11.88
2023-11-30T10:25:47.227Z,12.32
2023-11-30T10:28:16.818Z,11.98
2023-11-30T10:30:45.792Z,12.55
2023-11-30T10:33:15.691Z,11.57
2023-11-30T10:35:45.318Z,10.80
2023-11-30T10:38:21.059Z,11.50
2023-11-30T10:40:51.762Z,10.98
2023-11-30T10:43:21.299Z,11.70
2023-11-30T10:45:52.179Z,11.90
2023-11-30T10:48:21.343Z,11.65
2023-11-30T10:50:51.459Z,11.63
2023-11-30T10:53:33.288Z,11.30
2023-11-30T10:56:01.893Z,12.05
2023-11-30T10:58:34.134Z,11.60
2023-11-30T11:01:02.136Z,11.05
2023-11-30T11:03:30.494Z,12.07
2023-11-30T11:05:58.152Z,11.25
2023-11-30T11:08:25.722Z,11.93
2023-11-30T11:10:53.296Z,11.82
2023-11-30T11:13:24.566Z,12.98
2023-11-30T11:16:01.155Z,12.13
2023-11-30T11:18:33.125Z,13.10
2023-11-30T11:21:02.167Z,11.75
2023-11-30T11:23:35.541Z,11.00
2023-11-30T11:26:04.672Z,12.07
2023-11-30T11:28:32.534Z,12.63
2023-11-30T11:31:01.519Z,11.63
2023-11-30T11:33:29.228Z,12.65
2023-11-30T11:35:57.358Z,10.57
2023-11-30T11:38:25.127Z,11.68
2023-11-30T11:40:53.534Z,11.75
2023-11-30T11:43:21.160Z,11.90
2023-11-30T11:45:48.925Z,9.77
2023-11-30T11:48:17.960Z,7.32
2023-11-30T11:50:45.655Z,8.63
2023-11-30T11:53:13.207Z,8.02
2023-11-30T11:55:40.850Z,7.82
2023-11-30T11:58:08.878Z,8.30
2023-11-30T12:00:36.458Z,7.93
2023-11-30T12:03:08.735Z,8.25
2023-11-30T12:05:47.640Z,8.82
2023-11-30T12:08:15.886Z,8.88
2023-11-30T12:10:44.643Z,8.68
2023-11-30T12:13:14.065Z,8.77
2023-11-30T12:15:42.102Z,9.68
2023-11-30T12:18:11.120Z,11.30
2023-11-30T12:20:40.584Z,11.65
2023-11-30T12:23:08.241Z,12.48
2023-11-30T12:25:36.789Z,12.13
2023-11-30T12:28:04.567Z,12.02
2023-11-30T12:30:32.412Z,12.82
2023-11-30T12:33:00.152Z,12.60
2023-11-30T12:35:27.765Z,12.77
2023-11-30T12:37:56.907Z,13.30
2023-11-30T12:40:24.487Z,12.30
2023-11-30T12:42:52.146Z,12.98
2023-11-30T12:45:19.909Z,13.55
2023-11-30T12:47:47.835Z,11.30
2023-11-30T12:50:15.584Z,13.07
2023-11-30T12:52:43.290Z,13.68
2023-11-30T12:55:12.456Z,12.73
2023-11-30T12:57:40.837Z,12.75
2023-11-30T13:00:15.812Z,12.85
2023-11-30T13:02:46.350Z,12.43
2023-11-30T13:05:14.769Z,12.43
2023-11-30T13:07:42.661Z,12.93
2023-11-30T13:10:12.567Z,12.18
2023-11-30T13:12:41.669Z,11.98
2023-11-30T13:15:11.925Z,12.63
2023-11-30T13:17:41.078Z,12.25
2023-11-30T13:20:13.621Z,12.50
2023-11-30T13:22:41.564Z,12.30
2023-11-30T13:25:11.229Z,11.48
2023-11-30T13:27:40.296Z,12.82
2023-11-30T13:30:09.951Z,11.65
2023-11-30T13:32:37.651Z,12.10
2023-11-30T13:35:06.706Z,11.38
2023-11-30T13:37:34.401Z,11.98
2023-11-30T13:40:02.003Z,12.75
2023-11-30T13:42:29.584Z,12.45
2023-11-30T13:44:58.563Z,12.32
2023-11-30T13:47:26.310Z,12.07
2023-11-30T13:49:54.806Z,12.80
2023-11-30T13:52:22.587Z,11.90
2023-11-30T13:54:50.216Z,12.10
2023-11-30T13:57:17.828Z,12.02
2023-11-30T13:59:45.450Z,11.60
2023-11-30T14:02:14.407Z,12.38
2023-11-30T14:04:42.012Z,12.15
2023-11-30T14:07:09.671Z,12.15
2023-11-30T14:09:37.279Z,12.82
2023-11-30T14:12:05.554Z,12.13
2023-11-30T14:14:33.168Z,11.57
2023-11-30T14:17:04.397Z,12.65
2023-11-30T14:19:35.013Z,11.60
2023-11-30T14:22:03.965Z,12.27
2023-11-30T14:24:31.661Z,12.23
2023-11-30T14:26:59.554Z,11.77
2023-11-30T14:29:27.392Z,12.25
2023-11-30T14:31:55.997Z,11.75
2023-11-30T14:34:23.662Z,11.98
2023-11-30T14:36:53.247Z,11.93
2023-11-30T14:39:25.424Z,11.95
2023-11-30T14:41:53.075Z,11.35
2023-11-30T14:44:20.670Z,11.90
2023-11-30T14:46:48.273Z,12.10
2023-11-30T14:49:15.869Z,11.82
2023-11-30T14:51:45.308Z,11.05
2023-11-30T14:54:16.184Z,11.30
2023-11-30T14:56:44.050Z,12.00
2023-11-30T14:59:11.619Z,12.45
2023-11-30T15:01:39.781Z,11.55
2023-11-30T15:04:10.237Z,11.68
2023-11-30T15:06:39.637Z,11.25
2023-11-30T15:09:07.752Z,13.93
2023-11-30T15:11:37.075Z,14.40
2023-11-30T15:14:06.044Z,15.38
2023-11-30T15:16:33.765Z,13.35
2023-11-30T15:19:01.694Z,12.82
2023-11-30T15:21:29.940Z,13.00
2023-11-30T15:23:57.641Z,14.45
2023-11-30T15:26:25.214Z,13.35
2023-11-30T15:28:58.468Z,12.20
2023-11-30T15:31:26.900Z,12.80
2023-11-30T15:33:55.029Z,12.55
2023-11-30T15:36:22.807Z,11.70
2023-11-30T15:38:50.458Z,11.57
2023-11-30T15:41:18.224Z,11.43
2023-11-30T15:43:44.984Z,10.63
2023-11-30T15:46:13.869Z,11.68
2023-11-30T15:48:41.735Z,13.75
2023-11-30T15:51:12.276Z,12.75
2023-11-30T15:53:40.514Z,11.25
2023-11-30T15:56:08.961Z,12.52
2023-11-30T15:58:38.434Z,11.90
2023-11-30T16:01:06.154Z,11.18
2023-11-30T16:03:35.076Z,11.98
2023-11-30T16:06:02.743Z,11.13
2023-11-30T16:08:30.374Z,12.43
2023-11-30T16:10:57.913Z,12.82
2023-11-30T16:13:25.520Z,12.20
2023-11-30T16:15:53.084Z,11.90
2023-11-30T16:18:20.869Z,13.77
2023-11-30T16:20:49.814Z,12.43
2023-11-30T16:23:17.419Z,12.55
2023-11-30T16:25:45.145Z,11.40
2023-11-30T16:28:12.710Z,13.10
2023-11-30T16:30:40.259Z,10.82
2023-11-30T16:33:07.901Z,10.45
2023-11-30T16:35:35.514Z,11.15
2023-11-30T16:38:04.458Z,11.20
2023-11-30T16:40:32.006Z,10.27
2023-11-30T16:42:59.550Z,11.73
2023-11-30T16:45:28.745Z,10.77
2023-11-30T16:47:56.586Z,10.85
2023-11-30T16:50:24.220Z,10.50
2023-11-30T16:52:51.743Z,10.85
2023-11-30T16:55:20.739Z,10.65
2023-11-30T16:57:48.324Z,10.20
2023-11-30T17:00:17.170Z,9.77
2023-11-30T17:02:44.904Z,9.95
2023-11-30T17:05:12.801Z,10.55
2023-11-30T17:07:41.479Z,9.23
2023-11-30T17:10:09.650Z,11.25
2023-11-30T17:12:38.596Z,10.05
2023-11-30T17:15:06.996Z,9.50
2023-11-30T17:17:34.996Z,9.95
2023-11-30T17:20:02.559Z,9.48
2023-11-30T17:22:31.088Z,10.07
2023-11-30T17:24:58.648Z,8.25
2023-11-30T17:27:26.265Z,7.78
2023-11-30T17:29:55.182Z,8.32
2023-11-30T17:32:22.831Z,8.45
2023-11-30T17:34:50.675Z,11.13
2023-11-30T17:37:18.357Z,9.02
2023-11-30T17:39:46.087Z,8.65
2023-11-30T17:42:13.643Z,8.38
2023-11-30T17:44:41.235Z,8.07
2023-11-30T17:47:10.107Z,10.63
2023-11-30T17:49:37.674Z,10.32
2023-11-30T17:52:05.925Z,9.60
2023-11-30T17:54:33.585Z,9.80
2023-11-30T17:57:01.148Z,11.30
2023-11-30T17:59:28.710Z,11.10
2023-11-30T18:01:56.275Z,13.02
2023-11-30T18:04:25.543Z,11.35
2023-11-30T18:06:53.254Z,10.35
2023-11-30T18:09:20.973Z,10.38
2023-11-30T18:11:48.539Z,10.60
2023-11-30T18:14:16.241Z,10.13
2023-11-30T18:16:44.841Z,10.63
2023-11-30T18:19:13.008Z,9.63
2023-11-30T18:21:41.926Z,10.57
2023-11-30T18:24:09.517Z,9.30
2023-11-30T18:26:37.090Z,9.85
2023-11-30T18:29:04.680Z,12.20
2023-11-30T18:31:33.054Z,11.90
2023-11-30T18:34:00.744Z,13.93
2023-11-30T18:36:28.328Z,11.60
2023-11-30T18:38:57.501Z,9.93
2023-11-30T18:41:26.315Z,9.63
2023-11-30T18:43:53.900Z,11.93
2023-11-30T18:46:21.503Z,12.02
2023-11-30T18:48:49.231Z,12.07
2023-11-30T18:51:16.850Z,9.52
2023-11-30T18:53:44.453Z,9.35
2023-11-30T18:56:13.579Z,9.45
2023-11-30T18:58:41.526Z,10.60
2023-11-30T19:01:10.935Z,10.90
2023-11-30T19:03:39.153Z,9.82
2023-11-30T19:06:07.453Z,9.35
2023-11-30T19:08:35.002Z,10.65
2023-11-30T19:11:02.527Z,10.48
2023-11-30T19:13:31.431Z,11.10
2023-11-30T19:15:59.035Z,10.07
2023-11-30T19:18:26.922Z,10.38
2023-11-30T19:20:54.549Z,11.60
2023-11-30T19:23:22.082Z,12.70
2023-11-30T19:25:49.639Z,12.50
2023-11-30T19:28:17.234Z,11.82
2023-11-30T19:30:46.536Z,10.80
2023-11-30T19:33:14.182Z,12.40
2023-11-30T19:35:41.713Z,11.25
2023-11-30T19:38:09.324Z,11.93
2023-11-30T19:40:36.937Z,11.27
2023-11-30T19:43:04.554Z,11.18
2023-11-30T19:45:32.165Z,11.23
2023-11-30T19:48:01.252Z,10.52
2023-11-30T19:50:30.347Z,10.70
2023-11-30T19:52:57.868Z,10.70
2023-11-30T19:55:27.345Z,9.50
2023-11-30T19:57:54.929Z,10.32
2023-11-30T20:00:22.663Z,9.85
2023-11-30T20:02:50.273Z,9.77
2023-11-30T20:05:19.240Z,9.77
2023-11-30T20:07:47.190Z,8.75
2023-11-30T20:10:14.815Z,8.02
2023-11-30T20:12:42.840Z,9.82
2023-11-30T20:15:11.231Z,8.75
2023-11-30T20:17:38.864Z,9.00
2023-11-30T20:20:07.346Z,8.80
2023-11-30T20:22:36.239Z,9.38
2023-11-30T20:25:03.846Z,8.43
2023-11-30T20:27:31.731Z,7.85
2023-11-30T20:29:59.297Z,8.15
2023-11-30T20:32:27.071Z,8.65
2023-11-30T20:34:54.709Z,8.82
2023-11-30T20:37:22.391Z,9.57
2023-11-30T20:39:51.292Z,9.15
2023-11-30T20:42:18.883Z,9.05
2023-11-30T20:44:47.787Z,9.95
2023-11-30T20:47:15.940Z,9.68
2023-11-30T20:49:43.466Z,9.50
2023-11-30T20:52:10.993Z,9.15
2023-11-30T20:54:39.009Z,8.95
2023-11-30T20:57:09.139Z,9.77
2023-11-30T20:59:38.615Z,9.13
2023-11-30T21:02:07.598Z,8.95
2023-11-30T21:04:35.392Z,8.65
2023-11-30T21:07:02.993Z,9.07
2023-11-30T21:09:30.755Z,9.82
2023-11-30T21:11:58.296Z,9.77
2023-11-30T21:14:27.223Z,8.82
2023-11-30T21:16:55.011Z,9.07
2023-11-30T21:19:22.634Z,9.65
2023-11-30T21:21:50.204Z,9.30
2023-11-30T21:24:17.887Z,8.57
2023-11-30T21:26:45.679Z,9.23
2023-11-30T21:29:13.243Z,9.05
2023-11-30T21:31:42.346Z,8.05
2023-11-30T21:34:10.348Z,8.70
2023-11-30T21:36:42.884Z,8.63
2023-11-30T21:39:10.879Z,8.80
2023-11-30T21:41:38.497Z,8.57
2023-11-30T21:44:06.406Z,8.13
2023-11-30T21:46:36.642Z,8.65
2023-11-30T21:49:06.018Z,8.30
2023-11-30T21:51:34.138Z,8.73
2023-11-30T21:54:02.270Z,8.25
2023-11-30T21:56:29.930Z,8.43
2023-11-30T21:58:57.573Z,8.77
2023-11-30T22:01:25.591Z,8.63
2023-11-30T22:03:53.377Z,8.85
2023-11-30T22:06:22.401Z,7.82
2023-11-30T22:08:53.375Z,9.13
2023-11-30T22:11:21.002Z,8.60
2023-11-30T22:13:48.593Z,8.45
2023-11-30T22:16:21.078Z,8.65
2023-11-30T22:18:51.658Z,8.40
2023-11-30T22:21:19.610Z,9.02
2023-11-30T22:23:49.248Z,9.30
2023-11-30T22:26:16.889Z,9.02
2023-11-30T22:28:44.451Z,8.77
2023-11-30T22:31:16.721Z,9.20
2023-11-30T22:33:45.055Z,8.65
2023-11-30T22:36:13.273Z,9.23
2023-11-30T22:38:46.006Z,8.82
2023-11-30T22:41:15.663Z,9.20
2023-11-30T22:43:43.233Z,8.82
2023-11-30T22:46:17.272Z,8.82
2023-11-30T22:48:45.040Z,8.82
2023-11-30T22:51:12.716Z,9.25
2023-11-30T22:53:40.311Z,9.18
2023-11-30T22:56:10.054Z,9.43
2023-11-30T22:58:39.079Z,8.90
2023-11-30T23:01:07.059Z,9.85
2023-11-30T23:03:35.103Z,9.80
2023-11-30T23:06:02.871Z,10.02
2023-11-30T23:08:30.491Z,9.10
2023-11-30T23:10:58.129Z,9.07
2023-11-30T23:13:25.770Z,9.98
2023-11-30T23:15:54.811Z,10.00
2023-11-30T23:18:22.439Z,10.10
2023-11-30T23:20:50.012Z,9.95
2023-11-30T23:23:17.814Z,9.25
2023-11-30T23:25:45.435Z,9.40
2023-11-30T23:28:13.358Z,9.57
2023-11-30T23:30:41.080Z,8.35
2023-11-30T23:33:12.411Z,9.38
2023-11-30T23:35:40.071Z,10.05
2023-11-30T23:38:08.110Z,9.50
2023-11-30T23:40:35.652Z,9.82
2023-11-30T23:43:03.269Z,9.57
2023-11-30T23:45:30.994Z,9.15
2023-11-30T23:47:58.745Z,9.55
2023-11-30T23:50:27.759Z,9.50
2023-11-30T23:52:55.339Z,9.48
2023-11-30T23:55:22.964Z,8.10
2023-11-30T23:57:50.551Z,8.93
